Terminal Aerodrome Forecast
Issued by NWS Lake Charles, LA

Home | Current Version | Previous Version | Text Only | Print | Product List | Glossary On
Versions: 1 2 3 4 5 6 7 8 9 10 11 12 13 14 15 16 17 18 19 20 21
000
FTUS44 KLCH 161100
TAFARA
TAF
KARA 161139Z 1612/1712 VRB03KT P6SM VCSH SCT025 BKN250
     FM161500 VRB04KT P6SM VCTS SCT020 BKN035CB
     FM161800 21005KT P6SM VCTS SCT025 BKN040CB
      TEMPO 1618/1622 VRB15G25KT 2SM TSRA BKN025CB
     FM170200 VRB04KT P6SM SCT030 BKN200=

USA.gov is the U.S. government's official web portal to all federal, state and local government web resources and services.